Time;durP1;ratioP1;P1;durP2;ratioP2;P2;SDS_P1;SDS_P2;PMS_P1;PMS_P2;Temp;Humidity;BMP_temperature;BMP_pressure;BME280_temperature;BME280_humidity;BME280_pressure;Samples;Min_cycle;Max_cycle;Signal;HPM_P1;HPM_P2
2021/04/25 01:36:34;;;;;;;;;;;;;;;;;;;;;
2021/04/25 02:38:10;;;;;;;7.43;1.80;;;6.20;83.80;;;;;;4692931;30;20457;-92
2021/04/25 04:41:23;;;;;;;4.60;2.93;;;6.00;85.30;;;;;;4922696;29;20498;-91
2021/04/25 04:45:26;;;;;;;3.20;1.60;;;6.10;85.40;;;;;;4932762;29;20434;-91
2021/04/25 04:49:13;;;;;;;10.13;2.90;;;6.00;85.20;;;;;;4925126;29;20475;-91
2021/04/25 04:52:48;;;;;;;3.20;1.60;;;6.00;85.10;;;;;;4920910;29;20467;-91
2021/04/25 04:56:01;;;;;;;5.78;1.75;;;6.00;85.00;;;;;;4914275;29;20906;-92
2021/04/25 04:59:50;;;;;;;;;;;;;;;;;;;;;
2021/04/25 05:03:30;;;;;;;4.50;2.33;;;6.10;84.80;;;;;;4909262;29;20442;-91
2021/04/25 05:06:29;;;;;;;7.23;2.17;;;6.20;85.00;;;;;;4919341;29;20447;-91
2021/04/25 05:10:06;;;;;;;6.80;1.97;;;6.10;85.00;;;;;;4919757;29;20450;-92
2021/04/25 05:35:34;;;;;;;8.37;2.87;;;6.20;85.60;;;;;;4870883;29;20564;-92
2021/04/25 06:00:33;;;;;;;6.57;1.83;;;6.30;86.10;;;;;;4760020;29;20504;-91
2021/04/25 06:03:14;;;;;;;8.00;1.90;;;6.40;86.20;;;;;;4870648;29;20512;-91
2021/04/25 06:09:25;;;;;;;3.67;1.63;;;6.40;86.30;;;;;;4896469;29;20488;-92
2021/04/25 06:12:51;;;;;;;6.17;1.80;;;6.50;86.40;;;;;;4926056;29;20497;-92
2021/04/25 06:15:54;;;;;;;6.50;2.40;;;6.50;86.40;;;;;;4852153;29;20454;-92
2021/04/25 06:20:00;;;;;;;3.77;1.90;;;6.50;87.00;;;;;;4794895;29;20482;-92
2021/04/25 06:22:31;;;;;;;4.50;2.10;;;6.60;86.50;;;;;;4810246;29;20465;-90
2021/04/25 06:25:06;;;;;;;4.83;2.20;;;6.60;86.50;;;;;;4849140;29;20506;-90
2021/04/25 06:27:56;;;;;;;5.13;2.50;;;6.60;86.50;;;;;;4849706;29;20479;-90
2021/04/25 06:30:31;;;;;;;4.30;1.97;;;6.70;86.60;;;;;;4850025;29;20453;-90
2021/04/25 06:36:11;;;;;;;6.30;2.20;;;6.80;86.80;;;;;;4855773;29;20457;-90
2021/04/25 06:38:51;;;;;;;;;;;;;;;;;;;;;
2021/04/25 06:41:33;;;;;;;3.83;2.33;;;6.90;86.80;;;;;;4940909;29;20481;-90
2021/04/25 06:44:02;;;;;;;6.90;2.20;;;7.00;86.90;;;;;;4924452;29;20453;-90
2021/04/25 06:47:02;;;;;;;5.80;2.60;;;7.10;86.80;;;;;;4924322;29;20770;-90
2021/04/25 06:49:40;;;;;;;6.93;2.40;;;7.30;86.90;;;;;;4924685;29;20453;-90
2021/04/25 06:52:18;;;;;;;4.93;1.87;;;7.60;87.10;;;;;;4940083;29;20458;-90
2021/04/25 06:54:59;;;;;;;;;;;;;;;;;;;;;
2021/04/25 06:57:33;;;;;;;4.57;1.50;;;7.80;86.40;;;;;;4922814;29;20488;-91
2021/04/25 07:00:00;;;;;;;3.97;1.70;;;7.80;86.30;;;;;;4924766;29;20491;-90
2021/04/25 07:02:28;;;;;;;5.50;1.83;;;7.80;86.30;;;;;;4924727;29;20816;-90
2021/04/25 07:04:58;;;;;;;4.60;1.70;;;7.80;86.30;;;;;;4922398;29;20549;-90
2021/04/25 07:07:26;;;;;;;3.40;1.70;;;7.90;86.30;;;;;;4941268;29;20684;-90
2021/04/25 07:10:16;;;;;;;;;;;;;;;;;;;;;
2021/04/25 07:12:44;;;;;;;4.50;2.10;;;7.90;85.90;;;;;;4950390;29;20514;-90
2021/04/25 07:15:16;;;;;;;4.00;2.63;;;8.00;85.90;;;;;;4923461;29;20545;-90
2021/04/25 07:17:43;;;;;;;5.50;1.90;;;8.10;85.80;;;;;;4923556;29;21045;-90
2021/04/25 07:20:13;;;;;;;7.33;1.83;;;8.30;85.60;;;;;;4923858;29;20467;-90
2021/04/25 07:22:44;;;;;;;3.97;2.17;;;8.30;85.10;;;;;;4939871;29;20440;-90
2021/04/25 07:25:12;;;;;;;3.10;2.10;;;8.40;84.90;;;;;;4924142;29;20451;-91
2021/04/25 07:27:39;;;;;;;5.57;2.20;;;8.40;84.40;;;;;;4923303;29;20868;-90
2021/04/25 07:30:12;;;;;;;4.57;1.53;;;8.50;84.30;;;;;;4923848;29;20547;-90
2021/04/25 07:32:41;;;;;;;4.60;2.20;;;8.70;84.40;;;;;;4924412;29;20472;-90
2021/04/25 07:35:12;;;;;;;7.53;1.53;;;8.70;84.30;;;;;;4939944;29;20531;-90
2021/04/25 07:37:49;;;;;;;3.40;1.77;;;8.80;84.20;;;;;;4923683;29;20484;-90
2021/04/25 07:40:18;;;;;;;3.83;2.27;;;8.80;83.90;;;;;;4923937;29;20471;-91
2021/04/25 07:42:49;;;;;;;5.57;1.63;;;8.80;84.00;;;;;;4941992;29;20480;-91
2021/04/25 07:45:21;;;;;;;5.00;1.60;;;8.80;84.00;;;;;;4923522;29;20881;-90
2021/04/25 07:47:52;;;;;;;3.90;1.70;;;8.80;84.50;;;;;;4924037;29;21061;-91
2021/04/25 07:50:22;;;;;;;3.40;1.67;;;8.80;83.70;;;;;;4923487;29;20455;-90
2021/04/25 07:53:03;;;;;;;2.73;1.33;;;8.90;83.70;;;;;;4924376;29;20822;-91
2021/04/25 07:58:55;;;;;;;4.10;1.80;;;9.10;83.10;;;;;;4914233;29;20495;-91
2021/04/25 08:01:29;;;;;;;5.37;1.57;;;9.60;83.30;;;;;;4924175;29;20467;-90
2021/04/25 08:03:57;;;;;;;5.67;1.97;;;9.80;82.80;;;;;;4923742;29;20479;-90
2021/04/25 08:06:27;;;;;;;4.13;1.80;;;10.00;81.30;;;;;;4924106;29;20457;-90
2021/04/25 08:09:17;;;;;;;6.33;2.93;;;10.00;80.70;;;;;;4923565;29;20469;-90
2021/04/25 08:12:06;;;;;;;2.23;1.53;;;10.10;80.50;;;;;;4922897;29;20945;-90
2021/04/25 08:15:02;;;;;;;5.03;2.00;;;10.00;80.00;;;;;;4923190;29;20941;-90
2021/04/25 08:17:53;;;;;;;5.43;1.97;;;10.20;79.90;;;;;;4922634;29;20477;-92
2021/04/25 08:20:30;;;;;;;3.73;1.77;;;10.40;79.50;;;;;;4938554;29;20464;-92
2021/04/25 08:23:17;;;;;;;3.43;2.10;;;10.40;78.80;;;;;;4921724;29;20471;-92
2021/04/25 08:25:46;;;;;;;4.40;1.63;;;10.40;78.60;;;;;;4937790;29;20440;-91
2021/04/25 08:28:20;;;;;;;4.10;1.83;;;10.60;78.50;;;;;;4936286;29;20491;-92
2021/04/25 08:30:58;;;;;;;2.60;1.53;;;10.60;78.20;;;;;;4921822;29;20477;-92
2021/04/25 08:33:26;;;;;;;4.70;1.90;;;10.50;78.10;;;;;;4937935;29;20961;-92
2021/04/25 08:35:54;;;;;;;3.33;2.40;;;10.80;78.60;;;;;;4920590;29;20459;-92
2021/04/25 08:38:28;;;;;;;4.37;2.43;;;11.10;78.40;;;;;;4920804;29;20489;-92
2021/04/25 08:41:17;;;;;;;5.13;2.50;;;11.40;78.20;;;;;;4914692;29;20457;-92
2021/04/25 08:44:04;;;;;;;4.43;2.10;;;11.80;78.00;;;;;;4921783;29;20517;-92
2021/04/25 08:46:35;;;;;;;2.60;1.83;;;12.10;77.40;;;;;;4920667;29;20863;-93
2021/04/25 08:49:08;;;;;;;3.43;2.47;;;12.20;77.10;;;;;;4920176;29;21005;-90
2021/04/25 08:51:45;;;;;;;4.33;1.80;;;12.40;77.00;;;;;;4919944;29;20445;-90
2021/04/25 08:54:32;;;;;;;4.00;2.30;;;12.50;76.80;;;;;;4919194;29;20459;-90
2021/04/25 08:57:07;;;;;;;5.20;3.03;;;12.50;74.10;;;;;;4919949;29;20477;-90
2021/04/25 08:59:46;;;;;;;5.73;2.50;;;12.60;74.50;;;;;;4919959;29;20551;-90
2021/04/25 09:02:14;;;;;;;3.13;2.30;;;12.70;74.70;;;;;;4921111;29;20419;-90
2021/04/25 09:04:49;;;;;;;3.77;2.30;;;12.60;74.70;;;;;;4937583;29;20461;-90
2021/04/25 09:07:23;;;;;;;2.50;2.00;;;12.60;74.30;;;;;;4920464;29;20495;-90
2021/04/25 09:12:46;;;;;;;3.90;2.67;;;12.40;74.10;;;;;;4921835;29;20448;-90
2021/04/25 09:15:30;;;;;;;3.90;2.50;;;12.20;73.90;;;;;;4921095;29;20462;-89
2021/04/25 09:18:05;;;;;;;4.70;2.40;;;12.20;74.20;;;;;;4920905;29;20472;-90
2021/04/25 09:20:42;;;;;;;6.10;2.30;;;12.30;74.40;;;;;;4921445;29;20453;-92
2021/04/25 09:23:29;;;;;;;4.20;2.50;;;12.40;73.80;;;;;;4920790;29;20818;-92
2021/04/25 09:26:08;;;;;;;4.30;2.10;;;12.60;73.20;;;;;;4920405;29;20453;-92
2021/04/25 09:28:41;;;;;;;4.97;2.77;;;12.70;72.80;;;;;;4920206;29;20447;-92
2021/04/25 09:31:15;;;;;;;7.47;3.10;;;12.80;72.80;;;;;;4920280;29;20439;-92
2021/04/25 09:33:52;;;;;;;3.17;1.97;;;13.10;73.00;;;;;;4936149;29;20469;-92
2021/04/25 09:36:23;;;;;;;3.40;2.40;;;13.30;72.70;;;;;;4935705;29;20889;-93
2021/04/25 09:38:52;;;;;;;4.17;2.73;;;13.50;72.50;;;;;;4939783;29;20485;-92
2021/04/25 09:41:24;;;;;;;2.97;2.17;;;13.60;72.70;;;;;;4919547;29;20442;-92
2021/04/25 09:44:05;;;;;;;4.00;2.40;;;13.80;72.50;;;;;;4920522;29;20419;-92
2021/04/25 09:46:59;;;;;;;3.53;2.20;;;13.80;72.20;;;;;;4936514;29;20457;-92
2021/04/25 09:49:46;;;;;;;6.23;2.47;;;13.80;71.70;;;;;;4921083;29;20500;-92
2021/04/25 09:52:31;;;;;;;3.50;2.30;;;13.80;71.60;;;;;;4922330;29;20482;-92
2021/04/25 09:55:27;;;;;;;3.07;2.10;;;13.70;71.40;;;;;;4920283;29;20552;-92
2021/04/25 09:58:08;;;;;;;3.33;2.20;;;13.60;70.10;;;;;;4921405;29;20475;-93
2021/04/25 10:00:41;;;;;;;7.97;2.80;;;13.30;70.20;;;;;;4921321;29;20460;-93
2021/04/25 10:03:10;;;;;;;5.33;3.40;;;13.10;69.30;;;;;;4921499;29;20479;-92
2021/04/25 10:05:39;;;;;;;9.03;4.20;;;12.90;69.50;;;;;;4921896;29;20415;-92
2021/04/25 10:08:07;;;;;;;4.70;2.93;;;12.70;69.50;;;;;;4921849;29;20434;-92
2021/04/25 10:10:36;;;;;;;5.60;2.90;;;12.60;69.60;;;;;;4937481;29;20470;-93
2021/04/25 10:13:10;;;;;;;6.07;2.60;;;12.60;69.80;;;;;;4922046;29;20601;-92
2021/04/25 10:15:38;;;;;;;3.60;2.50;;;12.60;68.80;;;;;;4935314;29;20432;-92
2021/04/25 10:18:09;;;;;;;6.23;2.47;;;12.50;68.80;;;;;;4922987;29;20486;-92
2021/04/25 10:20:36;;;;;;;13.97;2.50;;;12.60;68.90;;;;;;4922129;29;20994;-90
2021/04/25 10:23:06;;;;;;;5.50;2.60;;;12.50;68.80;;;;;;4921387;29;20451;-91
2021/04/25 10:25:36;;;;;;;5.13;2.57;;;12.60;68.50;;;;;;4921192;29;20208;-91
2021/04/25 10:28:06;;;;;;;4.90;3.40;;;12.70;68.10;;;;;;4918878;29;20874;-92
2021/04/25 10:30:37;;;;;;;5.27;3.70;;;12.70;68.00;;;;;;4922358;29;20495;-92
2021/04/25 10:33:07;;;;;;;4.30;2.20;;;12.70;68.00;;;;;;4924045;29;21069;-91
2021/04/25 10:35:35;;;;;;;4.47;2.63;;;12.80;67.70;;;;;;4924387;29;20443;-92
2021/04/25 10:38:04;;;;;;;3.50;2.60;;;12.80;67.50;;;;;;4924364;29;20487;-93
2021/04/25 10:40:35;;;;;;;4.63;2.80;;;12.80;67.00;;;;;;4923891;29;20961;-92
2021/04/25 10:43:08;;;;;;;3.80;2.70;;;12.80;66.90;;;;;;4923402;29;20444;-92
2021/04/25 10:45:55;;;;;;;3.40;2.43;;;12.90;67.00;;;;;;4938619;29;20480;-92
2021/04/25 10:48:32;;;;;;;3.17;2.33;;;13.10;66.80;;;;;;4939288;29;20477;-92
2021/04/25 10:51:19;;;;;;;3.43;2.07;;;13.10;66.70;;;;;;4923580;29;20457;-92
2021/04/25 10:53:48;;;;;;;2.80;2.50;;;13.10;66.60;;;;;;4924424;29;20484;-92
2021/04/25 10:56:22;;;;;;;2.97;2.00;;;13.00;65.90;;;;;;4924303;29;20507;-89
2021/04/25 10:59:21;;;;;;;4.47;2.27;;;12.90;65.90;;;;;;4925210;29;20568;-88
2021/04/25 11:01:49;;;;;;;2.80;2.03;;;12.90;65.30;;;;;;4925672;29;20440;-89
2021/04/25 11:07:52;;;;;;;3.60;1.90;;;12.60;65.20;;;;;;4886742;29;20537;-88
2021/04/25 11:10:52;;;;;;;3.50;2.27;;;12.60;65.40;;;;;;4886907;29;20447;-88
2021/04/25 11:13:54;;;;;;;5.60;1.90;;;12.50;65.20;;;;;;4936162;29;20481;-91
2021/04/25 11:16:46;;;;;;;3.03;1.77;;;12.60;65.40;;;;;;4926386;29;20415;-91
2021/04/25 11:19:44;;;;;;;4.90;1.80;;;12.70;65.60;;;;;;4925782;29;20453;-91
2021/04/25 11:22:48;;;;;;;3.70;2.13;;;12.80;65.20;;;;;;4940186;29;20487;-91
2021/04/25 11:25:34;;;;;;;4.00;2.23;;;12.90;64.70;;;;;;4924065;29;20420;-91
2021/04/25 11:28:01;;;;;;;3.33;2.33;;;12.80;64.60;;;;;;4925011;29;20473;-91
2021/04/25 11:30:38;;;;;;;5.30;3.00;;;12.80;64.80;;;;;;4926041;29;20541;-91
2021/04/25 11:33:30;;;;;;;3.37;1.90;;;12.80;64.70;;;;;;4934748;29;20538;-91
2021/04/25 11:36:44;;;;;;;4.57;1.90;;;12.90;64.50;;;;;;4935636;29;20463;-90
2021/04/25 11:39:17;;;;;;;3.00;2.20;;;13.20;63.40;;;;;;4934419;29;20267;-91
2021/04/25 11:41:53;;;;;;;3.97;2.53;;;13.30;63.70;;;;;;4940717;29;20439;-90
2021/04/25 11:44:29;;;;;;;3.03;2.07;;;13.40;63.40;;;;;;4923339;29;20419;-91
2021/04/25 11:47:00;;;;;;;5.37;2.17;;;13.30;62.90;;;;;;4940329;29;20549;-91
2021/04/25 11:49:31;;;;;;;5.20;2.50;;;13.30;62.60;;;;;;4924341;29;20449;-91
2021/04/25 11:52:08;;;;;;;4.80;2.40;;;13.10;62.30;;;;;;4925589;29;20941;-91
2021/04/25 11:54:40;;;;;;;3.43;1.93;;;13.10;62.00;;;;;;4923115;29;20468;-91
2021/04/25 11:57:10;;;;;;;2.83;2.10;;;13.00;62.10;;;;;;4923995;29;20456;-91
2021/04/25 11:59:37;;;;;;;3.03;1.90;;;12.90;62.00;;;;;;4940446;29;20457;-91
2021/04/25 12:02:09;;;;;;;3.47;2.00;;;13.00;61.90;;;;;;4924128;29;20435;-91
2021/04/25 12:04:50;;;;;;;2.80;1.93;;;13.00;61.70;;;;;;4940566;29;21028;-91
2021/04/25 12:07:47;;;;;;;3.23;2.00;;;13.10;61.80;;;;;;4940134;29;20575;-91
2021/04/25 12:10:24;;;;;;;3.20;1.70;;;13.30;61.60;;;;;;4909262;29;20568;-90
2021/04/25 12:13:04;;;;;;;3.00;1.40;;;13.30;61.50;;;;;;4950308;29;20452;-91
2021/04/25 12:15:40;;;;;;;2.10;1.40;;;13.40;61.30;;;;;;4958047;29;20440;-91
2021/04/25 12:18:10;;;;;;;2.20;1.67;;;13.50;61.40;;;;;;4942287;29;20484;-91
2021/04/25 12:20:43;;;;;;;2.30;1.77;;;13.50;60.40;;;;;;4941476;29;20441;-91
2021/04/25 12:23:14;;;;;;;4.50;2.00;;;13.50;60.30;;;;;;4939983;29;20480;-91
2021/04/25 12:25:43;;;;;;;1.80;1.60;;;13.50;60.50;;;;;;4934819;29;20437;-92
2021/04/25 12:28:13;;;;;;;2.70;1.80;;;13.40;60.40;;;;;;4921146;29;20492;-91
2021/04/25 12:30:44;;;;;;;2.57;1.60;;;13.40;60.60;;;;;;4921089;29;20534;-91
2021/04/25 12:33:13;;;;;;;3.50;1.20;;;13.50;60.80;;;;;;4936779;29;20540;-92
2021/04/25 12:35:43;;;;;;;4.10;1.70;;;13.50;60.60;;;;;;4919449;29;20838;-92
2021/04/25 12:38:21;;;;;;;2.23;1.60;;;13.40;60.50;;;;;;4921158;29;20479;-91
2021/04/25 12:41:00;;;;;;;3.73;1.87;;;13.40;60.30;;;;;;4925288;29;20444;-92
2021/04/25 12:43:53;;;;;;;4.57;1.93;;;13.30;60.80;;;;;;4936944;29;20452;-90
2021/04/25 12:46:38;;;;;;;4.50;2.40;;;13.40;60.30;;;;;;4916551;29;20424;-91
2021/04/25 12:49:45;;;;;;;2.60;1.50;;;13.40;60.60;;;;;;4936531;29;20597;-91
2021/04/25 12:52:34;;;;;;;3.63;1.60;;;13.50;60.90;;;;;;4934575;29;20463;-91
2021/04/25 12:55:02;;;;;;;2.05;1.40;;;13.50;60.30;;;;;;4920761;29;20508;-92
2021/04/25 13:11:00;;;;;;;2.20;1.47;;;13.70;56.70;;;;;;4771045;30;20213;-89
2021/04/25 13:14:41;;;;;;;3.67;2.10;;;13.80;57.50;;;;;;4761475;30;20606;-89
2021/04/25 14:09:29;;;;;;;2.97;1.50;;;14.00;56.60;;;;;;4943203;29;20922;-78
2021/04/25 14:11:56;;;;;;;3.07;1.87;;;14.00;56.30;;;;;;4937257;29;20527;-78
2021/04/25 14:14:23;;;;;;;3.00;1.30;;;13.90;56.10;;;;;;4921266;29;20488;-78
2021/04/25 14:16:51;;;;;;;1.97;1.47;;;13.70;55.90;;;;;;4920313;29;20423;-79
2021/04/25 14:19:18;;;;;;;2.03;1.50;;;13.70;56.40;;;;;;4919545;29;20494;-79
2021/04/25 14:21:46;;;;;;;2.30;2.07;;;13.60;55.50;;;;;;4920491;29;20451;-79
2021/04/25 14:24:20;;;;;;;1.90;1.30;;;13.60;55.60;;;;;;4972239;23;20473;-92
2021/04/25 14:27:29;;;;;;;1.90;1.60;;;13.70;55.60;;;;;;4940130;29;20456;-91
2021/04/25 14:30:23;;;;;;;3.37;2.10;;;13.70;55.50;;;;;;4944326;29;20499;-91
2021/04/25 14:33:13;;;;;;;4.33;1.60;;;13.80;55.50;;;;;;4944031;29;20431;-91
2021/04/25 14:36:12;;;;;;;2.40;1.47;;;13.90;55.40;;;;;;4945359;29;20463;-92
2021/04/25 14:39:22;;;;;;;3.07;1.60;;;13.90;55.20;;;;;;4946374;29;20552;-92
2021/04/25 14:49:03;;;;;;;1.80;1.40;;;13.80;55.20;;;;;;4952078;29;20475;-93
2021/04/25 14:52:08;;;;;;;1.80;1.50;;;13.80;55.00;;;;;;4956601;28;20456;-93
2021/04/25 14:54:44;;;;;;;3.20;1.60;;;13.80;54.80;;;;;;4951547;29;20499;-93
2021/04/25 14:57:14;;;;;;;1.97;1.43;;;13.70;54.70;;;;;;4948971;29;20471;-93
2021/04/25 14:59:46;;;;;;;2.77;1.50;;;13.70;54.60;;;;;;4953132;29;20484;-93
2021/04/25 15:02:19;;;;;;;2.27;1.00;;;13.70;54.50;;;;;;4947403;29;20423;-92
2021/04/25 15:04:51;;;;;;;2.37;1.53;;;13.70;54.20;;;;;;4946113;29;20485;-92
2021/04/25 15:07:23;;;;;;;1.83;1.20;;;13.60;53.80;;;;;;4947485;29;20499;-93
2021/04/25 15:09:54;;;;;;;2.20;1.90;;;13.70;54.00;;;;;;4953325;29;20462;-93
2021/04/25 15:12:24;;;;;;;1.40;0.97;;;13.60;54.00;;;;;;4953532;29;20535;-93
2021/04/25 15:14:55;;;;;;;2.37;1.50;;;13.70;53.80;;;;;;4954417;29;20545;-92
2021/04/25 15:17:22;;;;;;;2.97;1.27;;;13.60;53.90;;;;;;4955794;28;20441;-93
2021/04/25 15:19:54;;;;;;;5.03;1.50;;;13.50;53.60;;;;;;4951122;29;20455;-93
2021/04/25 15:22:24;;;;;;;2.30;1.90;;;13.50;53.80;;;;;;4953080;29;20452;-93
2021/04/25 15:25:04;;;;;;;1.97;1.23;;;13.20;53.70;;;;;;4949694;29;20471;-93
2021/04/25 15:27:45;;;;;;;2.00;1.57;;;13.30;53.90;;;;;;4949371;29;20439;-93
2021/04/25 15:30:26;;;;;;;2.50;1.50;;;13.30;53.90;;;;;;4948869;29;20450;-92
2021/04/25 15:33:03;;;;;;;1.80;1.57;;;13.40;53.90;;;;;;4949045;29;21036;-93
2021/04/25 15:35:36;;;;;;;3.20;1.80;;;13.50;54.20;;;;;;4947889;29;20531;-93
2021/04/25 15:38:03;;;;;;;2.00;1.37;;;13.50;54.00;;;;;;4947914;29;20475;-94
2021/04/25 15:40:35;;;;;;;2.58;1.90;;;13.50;54.00;;;;;;4951554;29;20481;-93
2021/04/25 15:43:04;;;;;;;2.57;1.57;;;13.60;53.70;;;;;;4955730;29;20197;-93
2021/04/25 15:45:39;;;;;;;2.80;1.40;;;13.60;54.00;;;;;;4955729;29;20827;-93
2021/04/25 15:48:16;;;;;;;1.80;1.57;;;13.60;54.10;;;;;;4957858;29;20487;-92
2021/04/25 15:50:46;;;;;;;2.83;1.50;;;13.60;54.20;;;;;;4949997;29;20444;-93
2021/04/25 15:53:18;;;;;;;2.13;1.73;;;13.70;54.20;;;;;;4956564;28;20499;-93
2021/04/25 15:56:09;;;;;;;2.17;1.57;;;13.60;54.30;;;;;;4949241;29;20472;-93
2021/04/25 15:58:37;;;;;;;1.93;1.70;;;13.60;54.40;;;;;;4950248;29;20482;-93
2021/04/25 16:27:00;;;;;;;2.57;1.93;;;13.40;55.30;;;;;;4861527;29;20423;-91
2021/04/25 16:29:35;;;;;;;2.97;2.00;;;13.40;55.70;;;;;;4920646;29;20523;-91
2021/04/25 16:32:03;;;;;;;2.63;2.03;;;13.40;55.70;;;;;;4936922;29;20461;-92
2021/04/25 16:34:30;;;;;;;2.87;1.70;;;13.40;55.60;;;;;;4940413;29;20451;-91
2021/04/25 16:37:12;;;;;;;3.40;1.80;;;13.40;56.10;;;;;;4936970;29;20426;-91
2021/04/25 16:39:55;;;;;;;2.17;1.73;;;13.30;55.60;;;;;;4937547;29;20554;-92
2021/04/25 16:42:55;;;;;;;3.10;1.70;;;13.30;55.80;;;;;;4937903;29;20507;-92
2021/04/25 16:45:54;;;;;;;3.07;1.80;;;13.30;56.20;;;;;;4938851;29;20415;-92
2021/04/25 16:48:22;;;;;;;2.90;1.80;;;13.40;56.60;;;;;;4948385;29;20476;-92
2021/04/25 16:51:04;;;;;;;4.37;1.87;;;13.50;57.00;;;;;;4941023;29;20204;-92
2021/04/25 16:53:35;;;;;;;1.60;1.40;;;13.60;57.10;;;;;;4940865;29;20469;-92
2021/04/25 16:56:03;;;;;;;3.60;1.70;;;13.60;57.30;;;;;;4942731;29;20522;-92
2021/04/25 16:58:33;;;;;;;1.73;1.30;;;13.70;57.40;;;;;;4942031;29;20247;-92
2021/04/25 17:01:00;;;;;;;1.80;1.40;;;13.80;57.50;;;;;;4941234;29;20423;-92
2021/04/25 17:03:35;;;;;;;2.17;1.90;;;13.90;57.90;;;;;;4940498;29;20483;-92
2021/04/25 17:06:28;;;;;;;3.00;1.47;;;14.00;57.90;;;;;;4942013;29;20451;-93
2021/04/25 17:09:04;;;;;;;2.70;1.50;;;14.30;57.80;;;;;;4941002;29;20513;-92
2021/04/25 17:11:50;;;;;;;1.90;1.30;;;14.60;57.90;;;;;;4940101;29;20451;-93
2021/04/25 17:14:30;;;;;;;2.20;1.40;;;14.90;57.50;;;;;;4938006;29;20468;-92
2021/04/25 17:16:57;;;;;;;3.00;1.40;;;15.20;57.90;;;;;;4938486;29;20419;-92
2021/04/25 17:19:55;;;;;;;4.23;1.40;;;15.80;58.40;;;;;;4940512;29;20491;-92
2021/04/25 17:22:31;;;;;;;1.33;1.20;;;16.70;58.30;;;;;;4940645;29;20506;-92
2021/04/25 17:24:59;;;;;;;3.63;1.40;;;17.80;57.70;;;;;;4940608;29;20475;-91
2021/04/25 17:27:28;;;;;;;3.10;1.23;;;18.80;56.70;;;;;;4940082;29;20575;-92
2021/04/25 17:34:33;;;;;;;2.57;1.50;;;20.60;54.10;;;;;;4933681;29;20468;-92
2021/04/25 17:40:52;;;;;;;3.13;1.27;;;22.20;51.50;;;;;;4944898;29;20474;-91
2021/04/25 17:43:22;;;;;;;2.43;1.90;;;22.80;51.00;;;;;;4944212;29;20952;-91
2021/04/25 17:46:19;;;;;;;2.17;1.60;;;23.20;50.40;;;;;;4942999;29;20929;-91
2021/04/25 17:49:17;;;;;;;2.23;1.77;;;23.40;49.10;;;;;;4943882;29;20497;-92
2021/04/25 17:51:52;;;;;;;3.80;1.60;;;23.30;48.60;;;;;;4943507;29;20474;-92
2021/04/25 17:54:45;;;;;;;2.47;1.23;;;22.80;47.90;;;;;;4943502;29;20468;-92
2021/04/25 17:57:27;;;;;;;1.47;1.33;;;21.30;48.20;;;;;;4943340;29;20960;-92
2021/04/25 18:00:17;;;;;;;2.90;1.60;;;19.60;49.30;;;;;;4943551;29;20456;-92
2021/04/25 18:02:54;;;;;;;2.13;1.93;;;18.30;50.00;;;;;;4888970;29;20896;-91
2021/04/25 18:05:52;;;;;;;4.70;1.80;;;17.30;50.60;;;;;;4937301;29;20464;-92
2021/04/25 18:08:33;;;;;;;1.83;1.30;;;16.60;49.40;;;;;;4946166;29;20588;-91
2021/04/25 18:11:00;;;;;;;3.70;1.50;;;15.90;50.10;;;;;;4944959;29;20426;-91
2021/04/25 18:13:40;;;;;;;2.42;1.60;;;15.30;50.60;;;;;;4945728;29;20452;-91
2021/04/25 18:16:22;;;;;;;2.30;1.77;;;14.80;50.80;;;;;;4944809;29;20287;-91
2021/04/25 18:18:56;;;;;;;2.23;1.20;;;14.30;51.10;;;;;;4951601;29;20438;-91
2021/04/25 18:21:23;;;;;;;2.10;1.60;;;13.90;51.40;;;;;;4963576;29;20479;-90
2021/04/25 18:24:06;;;;;;;3.30;2.20;;;13.60;51.70;;;;;;4961615;28;20452;-91
2021/04/25 18:26:41;;;;;;;2.23;1.50;;;13.30;51.90;;;;;;4961175;29;20457;-91
2021/04/25 18:29:16;;;;;;;6.57;2.20;;;13.00;52.10;;;;;;4958708;29;20562;-91
2021/04/25 18:31:43;;;;;;;5.00;1.87;;;12.80;52.40;;;;;;4949645;29;20426;-91
2021/04/25 18:34:11;;;;;;;6.97;1.87;;;12.50;52.60;;;;;;4942197;29;20467;-91
2021/04/25 18:36:40;;;;;;;2.80;1.43;;;12.30;52.80;;;;;;4941835;29;20437;-91
2021/04/25 18:39:10;;;;;;;3.70;1.63;;;12.10;53.00;;;;;;4941472;29;20665;-90
2021/04/25 18:41:38;;;;;;;2.13;1.40;;;11.90;53.30;;;;;;4941665;29;20459;-91
2021/04/25 18:44:06;;;;;;;3.40;1.77;;;11.80;53.50;;;;;;4942911;29;20554;-91
2021/04/25 18:46:34;;;;;;;3.40;2.00;;;11.60;53.60;;;;;;4943807;29;20652;-91
2021/04/25 18:49:55;;;;;;;4.10;2.13;;;11.50;53.80;;;;;;4944738;29;20439;-91
2021/04/25 18:52:46;;;;;;;4.60;2.47;;;11.30;54.10;;;;;;4940730;29;20452;-90
2021/04/25 18:56:12;;;;;;;3.93;2.60;;;11.10;54.20;;;;;;4947170;28;20480;-91
2021/04/25 18:59:13;;;;;;;2.53;2.17;;;11.00;54.60;;;;;;4940649;29;20480;-90
2021/04/25 19:02:34;;;;;;;2.67;1.93;;;10.80;54.80;;;;;;4933848;29;20499;-91
2021/04/25 19:13:14;;;;;;;3.20;1.77;;;10.30;55.50;;;;;;4940138;29;20508;-91
2021/04/25 19:15:41;;;;;;;4.73;2.77;;;10.10;55.80;;;;;;4940757;29;20522;-90
2021/04/25 19:18:20;;;;;;;3.70;2.97;;;10.10;56.10;;;;;;4940569;29;20479;-90
2021/04/25 19:24:14;;;;;;;4.17;3.30;;;9.80;57.40;;;;;;4938136;29;20458;-91
2021/04/25 19:27:11;;;;;;;4.07;2.33;;;9.70;57.50;;;;;;4944756;29;20441;-90
2021/04/25 19:34:13;;;;;;;2.63;1.90;;;9.70;58.50;;;;;;4790484;29;20615;-90
2021/04/25 19:36:43;;;;;;;3.40;2.00;;;9.50;58.60;;;;;;4793711;29;20208;-91
2021/04/25 19:39:36;;;;;;;3.20;2.10;;;9.40;58.80;;;;;;4861879;29;20570;-91
2021/04/25 19:42:06;;;;;;;2.37;1.77;;;9.30;59.00;;;;;;4849247;29;20451;-91
2021/04/25 19:44:34;;;;;;;3.20;2.00;;;9.20;59.00;;;;;;4849407;29;20452;-90
2021/04/25 19:47:01;;;;;;;3.10;2.80;;;9.10;59.20;;;;;;4848795;29;20918;-90
2021/04/25 19:49:40;;;;;;;4.17;2.97;;;9.00;59.30;;;;;;4848199;29;20469;-90
2021/04/25 19:52:13;;;;;;;4.50;3.30;;;8.90;59.50;;;;;;4848715;29;20475;-91
2021/04/25 19:54:58;;;;;;;3.70;2.80;;;8.80;59.60;;;;;;4848157;29;20877;-90
2021/04/25 19:58:15;;;;;;;4.83;2.33;;;8.80;59.90;;;;;;4846142;29;20518;-90
2021/04/25 20:00:50;;;;;;;3.53;2.90;;;8.60;60.00;;;;;;4852610;29;20455;-92
2021/04/25 20:03:18;;;;;;;3.23;2.50;;;8.50;60.00;;;;;;4865699;29;20452;-93
2021/04/25 20:05:47;;;;;;;5.00;2.77;;;8.50;60.20;;;;;;4851472;29;21046;-92
2021/04/25 20:08:22;;;;;;;3.27;2.70;;;8.50;60.50;;;;;;4856044;29;20484;-93
2021/04/25 20:11:09;;;;;;;2.70;2.50;;;8.30;60.50;;;;;;4906061;29;20526;-93
2021/04/25 20:13:49;;;;;;;3.40;2.43;;;8.30;60.70;;;;;;4949973;29;20465;-93
2021/04/25 20:16:25;;;;;;;3.27;2.10;;;8.20;60.70;;;;;;4948165;29;20545;-93
2021/04/25 20:18:53;;;;;;;4.03;2.20;;;8.20;60.90;;;;;;4948671;29;20481;-93
2021/04/25 20:22:05;;;;;;;3.50;2.10;;;8.20;61.00;;;;;;4950277;29;20535;-93
2021/04/25 20:25:07;;;;;;;3.03;2.20;;;8.00;61.00;;;;;;4950127;29;20448;-93
2021/04/25 20:28:07;;;;;;;2.37;2.17;;;8.00;61.10;;;;;;4949013;29;20554;-93
2021/04/25 21:07:09;;;;;;;4.50;2.30;;;7.20;62.30;;;;;;4802034;29;20469;-93
2021/04/25 21:21:18;;;;;;;;;;;;;;;;;;;;;
2021/04/25 21:39:12;;;;;;;2.63;1.70;;;6.60;63.70;;;;;;4932934;23;20504;-76
2021/04/25 21:41:39;;;;;;;2.93;2.40;;;6.50;63.60;;;;;;4952391;29;20441;-76
2021/04/25 21:44:07;;;;;;;2.80;2.10;;;6.50;63.90;;;;;;4934667;29;20536;-76
2021/04/25 21:46:34;;;;;;;3.63;2.70;;;6.40;64.10;;;;;;4934732;29;20950;-76
2021/04/25 21:49:01;;;;;;;4.60;2.27;;;6.40;64.20;;;;;;4927637;29;20461;-76
2021/04/25 21:51:28;;;;;;;2.93;2.03;;;6.40;64.40;;;;;;4916861;29;20525;-76
2021/04/25 21:53:55;;;;;;;3.33;2.00;;;6.30;64.50;;;;;;4915630;29;20491;-76
2021/04/25 21:56:23;;;;;;;2.83;1.83;;;6.30;64.60;;;;;;4915650;29;20886;-76
2021/04/25 21:58:51;;;;;;;4.87;1.87;;;6.20;64.70;;;;;;4916774;29;20821;-76
2021/04/25 22:01:18;;;;;;;2.80;2.27;;;6.20;64.90;;;;;;4915597;29;20957;-76
2021/04/25 22:03:45;;;;;;;4.20;2.23;;;6.20;65.10;;;;;;4915474;29;20478;-76
2021/04/25 22:06:12;;;;;;;3.60;2.10;;;6.10;65.20;;;;;;4916736;29;20935;-76
2021/04/25 22:08:39;;;;;;;3.47;2.30;;;6.10;65.40;;;;;;4908568;29;20999;-76
2021/04/25 22:11:10;;;;;;;2.50;1.90;;;6.00;65.50;;;;;;4917385;29;20994;-76
2021/04/25 22:13:38;;;;;;;3.60;2.50;;;6.00;65.60;;;;;;4919010;29;20462;-76
2021/04/25 22:16:06;;;;;;;4.40;2.73;;;5.90;65.60;;;;;;4917540;29;21006;-76
2021/04/25 22:18:35;;;;;;;3.80;2.00;;;5.90;65.80;;;;;;4917143;29;20426;-76
2021/04/25 22:21:02;;;;;;;3.73;2.60;;;5.90;65.80;;;;;;4915406;29;20458;-76
2021/04/25 22:23:30;;;;;;;4.20;2.07;;;5.90;66.00;;;;;;4916492;29;20459;-76
2021/04/25 22:25:57;;;;;;;5.00;2.03;;;5.80;66.10;;;;;;4916473;29;20478;-76
2021/04/25 22:28:24;;;;;;;3.40;2.63;;;5.80;66.20;;;;;;4920049;29;20442;-76
2021/04/25 22:30:54;;;;;;;3.57;2.20;;;5.70;66.30;;;;;;4920135;29;20453;-76
2021/04/25 22:33:22;;;;;;;2.77;2.03;;;5.70;66.60;;;;;;4924250;29;20525;-76
2021/04/25 22:35:51;;;;;;;2.80;2.20;;;5.60;67.20;;;;;;4939448;29;20483;-76
2021/04/25 22:38:21;;;;;;;3.20;2.00;;;5.60;66.60;;;;;;4925840;29;20482;-76
2021/04/25 22:40:48;;;;;;;3.60;2.30;;;5.70;68.00;;;;;;4920622;29;20295;-76
2021/04/25 22:43:16;;;;;;;3.60;2.27;;;5.70;67.60;;;;;;4937626;29;20473;-76